CheckWX is a tool to help pilots better visualize weather data.  It is not intended as a substitute for an official pre-flight weather briefing.

20:11:35 UTC

KOQU METAR
Quonset State Airport
North Kingstown, Rhode Island, USA
Current

22 mins ago

KOQU 231950Z 11007KT 15SM BKN035 16/11 A2989
Observed
Apr-23 @ 19:50 UTC
Wind
  • 110° at 7 KTS
Visibility
15 SM
Flight Rules
VFR
Cloud Levels
  • Broken at 3,500' AGL
Temperature
16°C / 61°F
Dewpoint
11°C / 52°F
Humidity
72%
Altimeter
29.89" Hg
Pressure
1012.22 hPa
Previous

1 hour ago

KOQU 231850Z 10008KT 12SM BKN024 15/11 A2991
Observed
Apr-23 @ 18:50 UTC
Wind
  • 100° at 8 KTS
Visibility
12 SM
Flight Rules
MVFR
Cloud Levels
  • Broken at 2,400' AGL
Temperature
15°C / 59°F
Dewpoint
11°C / 52°F
Humidity
77%
Altimeter
29.91" Hg
Pressure
1012.92 hPa
Previous

2 hours ago

KOQU 231750Z 10008KT 12SM BKN016 14/11 A2992
Observed
Apr-23 @ 17:50 UTC
Wind
  • 100° at 8 KTS
Visibility
12 SM
Flight Rules
MVFR
Cloud Levels
  • Broken at 1,600' AGL
Temperature
14°C / 57°F
Dewpoint
11°C / 52°F
Humidity
82%
Altimeter
29.92" Hg
Pressure
1013.22 hPa